sensor_id;sensor_type;location;lat;lon;timestamp;P1;durP1;ratioP1;P2;durP2;ratioP2
7029;SDS011;3556;53.500;10.176;2022-07-22T00:01:23;20.03;;;17.90;;
7029;SDS011;3556;53.500;10.176;2022-07-22T00:03:48;20.37;;;17.17;;
7029;SDS011;3556;53.500;10.176;2022-07-22T00:06:14;19.10;;;17.30;;
7029;SDS011;3556;53.500;10.176;2022-07-22T00:08:40;26.00;;;19.97;;
7029;SDS011;3556;53.500;10.176;2022-07-22T00:11:06;25.03;;;19.87;;
7029;SDS011;3556;53.500;10.176;2022-07-22T00:13:32;26.27;;;21.37;;
7029;SDS011;3556;53.500;10.176;2022-07-22T00:15:58;27.60;;;19.83;;
7029;SDS011;3556;53.500;10.176;2022-07-22T00:18:24;25.93;;;21.03;;
7029;SDS011;3556;53.500;10.176;2022-07-22T00:20:50;33.90;;;25.70;;
7029;SDS011;3556;53.500;10.176;2022-07-22T00:23:16;27.73;;;22.40;;
7029;SDS011;3556;53.500;10.176;2022-07-22T00:25:42;26.73;;;22.07;;
7029;SDS011;3556;53.500;10.176;2022-07-22T00:28:07;35.30;;;24.50;;
7029;SDS011;3556;53.500;10.176;2022-07-22T00:30:33;36.63;;;24.00;;
7029;SDS011;3556;53.500;10.176;2022-07-22T00:32:59;35.40;;;23.63;;
7029;SDS011;3556;53.500;10.176;2022-07-22T00:35:24;44.53;;;30.20;;
7029;SDS011;3556;53.500;10.176;2022-07-22T00:37:50;41.27;;;28.40;;
7029;SDS011;3556;53.500;10.176;2022-07-22T00:40:16;42.57;;;28.63;;
7029;SDS011;3556;53.500;10.176;2022-07-22T00:42:41;51.10;;;31.10;;
7029;SDS011;3556;53.500;10.176;2022-07-22T00:45:07;55.40;;;34.97;;
7029;SDS011;3556;53.500;10.176;2022-07-22T00:47:33;58.13;;;35.63;;
7029;SDS011;3556;53.500;10.176;2022-07-22T00:49:59;57.47;;;36.90;;
7029;SDS011;3556;53.500;10.176;2022-07-22T00:52:25;50.73;;;34.20;;
7029;SDS011;3556;53.500;10.176;2022-07-22T00:54:51;49.70;;;34.30;;
7029;SDS011;3556;53.500;10.176;2022-07-22T00:57:17;39.10;;;26.87;;
7029;SDS011;3556;53.500;10.176;2022-07-22T00:59:43;34.57;;;23.60;;
7029;SDS011;3556;53.500;10.176;2022-07-22T01:02:09;38.80;;;23.47;;
7029;SDS011;3556;53.500;10.176;2022-07-22T01:04:35;45.87;;;23.37;;
7029;SDS011;3556;53.500;10.176;2022-07-22T01:07:01;32.20;;;20.47;;
7029;SDS011;3556;53.500;10.176;2022-07-22T01:09:27;34.03;;;18.67;;
7029;SDS011;3556;53.500;10.176;2022-07-22T01:11:52;24.27;;;16.43;;
7029;SDS011;3556;53.500;10.176;2022-07-22T01:14:18;17.23;;;13.40;;
7029;SDS011;3556;53.500;10.176;2022-07-22T01:16:44;19.80;;;15.07;;
7029;SDS011;3556;53.500;10.176;2022-07-22T01:19:09;19.43;;;13.80;;
7029;SDS011;3556;53.500;10.176;2022-07-22T01:21:35;21.80;;;12.80;;
7029;SDS011;3556;53.500;10.176;2022-07-22T01:24:01;13.67;;;12.27;;
7029;SDS011;3556;53.500;10.176;2022-07-22T01:26:27;16.40;;;12.40;;
7029;SDS011;3556;53.500;10.176;2022-07-22T01:28:53;10.87;;;9.73;;
7029;SDS011;3556;53.500;10.176;2022-07-22T01:31:18;12.47;;;8.87;;
7029;SDS011;3556;53.500;10.176;2022-07-22T01:33:44;7.63;;;6.40;;
7029;SDS011;3556;53.500;10.176;2022-07-22T01:36:10;6.30;;;5.90;;
7029;SDS011;3556;53.500;10.176;2022-07-22T01:38:36;6.73;;;4.80;;
7029;SDS011;3556;53.500;10.176;2022-07-22T01:41:02;5.43;;;5.13;;
7029;SDS011;3556;53.500;10.176;2022-07-22T01:43:27;4.50;;;4.40;;
7029;SDS011;3556;53.500;10.176;2022-07-22T01:45:54;4.73;;;4.40;;
7029;SDS011;3556;53.500;10.176;2022-07-22T01:48:20;4.33;;;4.13;;
7029;SDS011;3556;53.500;10.176;2022-07-22T01:50:46;4.07;;;3.87;;
7029;SDS011;3556;53.500;10.176;2022-07-22T01:53:12;3.83;;;3.73;;
7029;SDS011;3556;53.500;10.176;2022-07-22T01:55:38;4.60;;;2.93;;
7029;SDS011;3556;53.500;10.176;2022-07-22T01:58:04;3.27;;;3.17;;
7029;SDS011;3556;53.500;10.176;2022-07-22T02:00:31;3.17;;;3.07;;
7029;SDS011;3556;53.500;10.176;2022-07-22T02:02:57;5.80;;;3.53;;
7029;SDS011;3556;53.500;10.176;2022-07-22T02:05:23;4.10;;;3.90;;
7029;SDS011;3556;53.500;10.176;2022-07-22T02:07:49;5.13;;;4.50;;
7029;SDS011;3556;53.500;10.176;2022-07-22T02:10:15;4.27;;;4.17;;
7029;SDS011;3556;53.500;10.176;2022-07-22T02:12:41;4.70;;;4.50;;
7029;SDS011;3556;53.500;10.176;2022-07-22T02:15:07;5.20;;;5.00;;
7029;SDS011;3556;53.500;10.176;2022-07-22T02:17:33;5.90;;;5.70;;
7029;SDS011;3556;53.500;10.176;2022-07-22T02:20:00;9.33;;;7.10;;
7029;SDS011;3556;53.500;10.176;2022-07-22T02:22:27;11.43;;;6.30;;
7029;SDS011;3556;53.500;10.176;2022-07-22T02:24:52;8.33;;;7.83;;
7029;SDS011;3556;53.500;10.176;2022-07-22T02:27:18;16.90;;;10.60;;
7029;SDS011;3556;53.500;10.176;2022-07-22T02:29:44;10.20;;;8.30;;
7029;SDS011;3556;53.500;10.176;2022-07-22T02:32:09;8.33;;;7.53;;
7029;SDS011;3556;53.500;10.176;2022-07-22T02:34:35;15.23;;;8.50;;
7029;SDS011;3556;53.500;10.176;2022-07-22T02:37:01;16.70;;;8.10;;
7029;SDS011;3556;53.500;10.176;2022-07-22T02:39:27;11.43;;;7.40;;
7029;SDS011;3556;53.500;10.176;2022-07-22T02:41:52;9.00;;;6.77;;
7029;SDS011;3556;53.500;10.176;2022-07-22T02:44:18;7.90;;;5.30;;
7029;SDS011;3556;53.500;10.176;2022-07-22T02:46:44;6.83;;;5.67;;
7029;SDS011;3556;53.500;10.176;2022-07-22T02:49:09;10.97;;;5.40;;
7029;SDS011;3556;53.500;10.176;2022-07-22T02:51:35;5.80;;;5.20;;
7029;SDS011;3556;53.500;10.176;2022-07-22T02:54:01;13.57;;;6.07;;
7029;SDS011;3556;53.500;10.176;2022-07-22T02:56:27;6.20;;;5.33;;
7029;SDS011;3556;53.500;10.176;2022-07-22T02:58:52;5.40;;;5.00;;
7029;SDS011;3556;53.500;10.176;2022-07-22T03:01:18;4.43;;;4.13;;
7029;SDS011;3556;53.500;10.176;2022-07-22T03:03:44;5.00;;;4.57;;
7029;SDS011;3556;53.500;10.176;2022-07-22T03:06:10;5.33;;;4.70;;
7029;SDS011;3556;53.500;10.176;2022-07-22T03:08:37;9.93;;;5.10;;
7029;SDS011;3556;53.500;10.176;2022-07-22T03:11:03;11.93;;;4.90;;
7029;SDS011;3556;53.500;10.176;2022-07-22T03:13:29;9.30;;;4.43;;
7029;SDS011;3556;53.500;10.176;2022-07-22T03:15:55;3.93;;;3.70;;
7029;SDS011;3556;53.500;10.176;2022-07-22T03:18:20;8.70;;;4.10;;
7029;SDS011;3556;53.500;10.176;2022-07-22T03:20:46;7.27;;;3.90;;
7029;SDS011;3556;53.500;10.176;2022-07-22T03:23:12;13.50;;;3.80;;
7029;SDS011;3556;53.500;10.176;2022-07-22T03:25:38;6.40;;;3.47;;
7029;SDS011;3556;53.500;10.176;2022-07-22T03:28:04;7.07;;;3.70;;
7029;SDS011;3556;53.500;10.176;2022-07-22T03:30:30;7.60;;;4.37;;
7029;SDS011;3556;53.500;10.176;2022-07-22T03:32:56;9.00;;;4.03;;
7029;SDS011;3556;53.500;10.176;2022-07-22T03:35:22;5.93;;;3.70;;
7029;SDS011;3556;53.500;10.176;2022-07-22T03:37:48;5.10;;;4.20;;
7029;SDS011;3556;53.500;10.176;2022-07-22T03:40:13;7.07;;;4.33;;
7029;SDS011;3556;53.500;10.176;2022-07-22T03:42:39;8.10;;;4.77;;
7029;SDS011;3556;53.500;10.176;2022-07-22T03:45:05;11.97;;;4.63;;
7029;SDS011;3556;53.500;10.176;2022-07-22T03:47:31;8.70;;;3.83;;
7029;SDS011;3556;53.500;10.176;2022-07-22T03:49:57;7.63;;;3.80;;
7029;SDS011;3556;53.500;10.176;2022-07-22T03:52:23;8.63;;;3.70;;
7029;SDS011;3556;53.500;10.176;2022-07-22T03:54:50;10.00;;;3.70;;
7029;SDS011;3556;53.500;10.176;2022-07-22T03:57:15;16.87;;;4.60;;
7029;SDS011;3556;53.500;10.176;2022-07-22T03:59:41;8.73;;;4.50;;
7029;SDS011;3556;53.500;10.176;2022-07-22T04:02:07;5.60;;;3.63;;
7029;SDS011;3556;53.500;10.176;2022-07-22T04:04:32;9.73;;;3.73;;
7029;SDS011;3556;53.500;10.176;2022-07-22T04:06:58;10.13;;;4.40;;
7029;SDS011;3556;53.500;10.176;2022-07-22T04:09:24;14.33;;;3.83;;
7029;SDS011;3556;53.500;10.176;2022-07-22T04:11:49;6.07;;;3.83;;
7029;SDS011;3556;53.500;10.176;2022-07-22T04:14:18;5.67;;;3.80;;
7029;SDS011;3556;53.500;10.176;2022-07-22T04:16:44;5.77;;;3.10;;
7029;SDS011;3556;53.500;10.176;2022-07-22T04:19:10;7.97;;;3.50;;
7029;SDS011;3556;53.500;10.176;2022-07-22T04:21:36;5.67;;;3.63;;
7029;SDS011;3556;53.500;10.176;2022-07-22T04:24:02;5.17;;;3.40;;
7029;SDS011;3556;53.500;10.176;2022-07-22T04:26:28;4.83;;;2.80;;
7029;SDS011;3556;53.500;10.176;2022-07-22T04:28:54;5.40;;;2.57;;
7029;SDS011;3556;53.500;10.176;2022-07-22T04:31:19;3.03;;;2.80;;
7029;SDS011;3556;53.500;10.176;2022-07-22T04:33:45;8.63;;;3.10;;
7029;SDS011;3556;53.500;10.176;2022-07-22T04:36:10;4.63;;;2.60;;
7029;SDS011;3556;53.500;10.176;2022-07-22T04:38:36;5.23;;;3.17;;
7029;SDS011;3556;53.500;10.176;2022-07-22T04:41:02;6.00;;;2.83;;
7029;SDS011;3556;53.500;10.176;2022-07-22T04:43:28;3.17;;;2.87;;
7029;SDS011;3556;53.500;10.176;2022-07-22T04:45:54;5.13;;;2.87;;
7029;SDS011;3556;53.500;10.176;2022-07-22T04:48:20;3.67;;;3.37;;
7029;SDS011;3556;53.500;10.176;2022-07-22T04:50:46;3.77;;;2.90;;
7029;SDS011;3556;53.500;10.176;2022-07-22T04:53:12;8.40;;;3.70;;
7029;SDS011;3556;53.500;10.176;2022-07-22T04:55:38;4.90;;;2.90;;
7029;SDS011;3556;53.500;10.176;2022-07-22T04:58:04;10.63;;;3.63;;
7029;SDS011;3556;53.500;10.176;2022-07-22T05:00:30;8.40;;;3.37;;
7029;SDS011;3556;53.500;10.176;2022-07-22T05:02:56;3.37;;;3.07;;
7029;SDS011;3556;53.500;10.176;2022-07-22T05:05:22;6.07;;;3.60;;
7029;SDS011;3556;53.500;10.176;2022-07-22T05:07:48;6.60;;;3.50;;
7029;SDS011;3556;53.500;10.176;2022-07-22T05:10:14;6.63;;;3.33;;
7029;SDS011;3556;53.500;10.176;2022-07-22T05:12:40;3.23;;;2.97;;
7029;SDS011;3556;53.500;10.176;2022-07-22T05:15:06;8.10;;;3.00;;
7029;SDS011;3556;53.500;10.176;2022-07-22T05:17:32;7.63;;;3.20;;
7029;SDS011;3556;53.500;10.176;2022-07-22T05:19:58;5.20;;;3.20;;
7029;SDS011;3556;53.500;10.176;2022-07-22T05:22:24;4.37;;;3.90;;
7029;SDS011;3556;53.500;10.176;2022-07-22T05:24:49;7.37;;;3.90;;
7029;SDS011;3556;53.500;10.176;2022-07-22T05:27:15;4.80;;;4.37;;
7029;SDS011;3556;53.500;10.176;2022-07-22T05:29:41;5.53;;;4.73;;
7029;SDS011;3556;53.500;10.176;2022-07-22T05:32:07;17.00;;;7.53;;
7029;SDS011;3556;53.500;10.176;2022-07-22T05:34:32;16.07;;;7.30;;
7029;SDS011;3556;53.500;10.176;2022-07-22T05:36:58;8.83;;;7.50;;
7029;SDS011;3556;53.500;10.176;2022-07-22T05:39:23;10.67;;;6.70;;
7029;SDS011;3556;53.500;10.176;2022-07-22T05:41:49;7.77;;;6.27;;
7029;SDS011;3556;53.500;10.176;2022-07-22T05:44:15;7.60;;;5.67;;
7029;SDS011;3556;53.500;10.176;2022-07-22T05:46:40;8.17;;;5.90;;
7029;SDS011;3556;53.500;10.176;2022-07-22T05:49:06;9.90;;;6.20;;
7029;SDS011;3556;53.500;10.176;2022-07-22T05:51:31;11.60;;;7.43;;
7029;SDS011;3556;53.500;10.176;2022-07-22T05:53:59;14.60;;;8.40;;
7029;SDS011;3556;53.500;10.176;2022-07-22T05:56:27;13.80;;;7.90;;
7029;SDS011;3556;53.500;10.176;2022-07-22T05:58:53;17.10;;;7.63;;
7029;SDS011;3556;53.500;10.176;2022-07-22T06:01:20;16.07;;;7.87;;
7029;SDS011;3556;53.500;10.176;2022-07-22T06:03:47;10.93;;;7.50;;
7029;SDS011;3556;53.500;10.176;2022-07-22T06:06:13;15.70;;;6.43;;
7029;SDS011;3556;53.500;10.176;2022-07-22T06:08:39;13.13;;;7.50;;
7029;SDS011;3556;53.500;10.176;2022-07-22T06:11:04;9.73;;;6.50;;
7029;SDS011;3556;53.500;10.176;2022-07-22T06:13:30;12.83;;;5.97;;
7029;SDS011;3556;53.500;10.176;2022-07-22T06:15:56;17.00;;;5.47;;
7029;SDS011;3556;53.500;10.176;2022-07-22T06:18:22;17.23;;;5.43;;
7029;SDS011;3556;53.500;10.176;2022-07-22T06:20:47;7.60;;;4.43;;
7029;SDS011;3556;53.500;10.176;2022-07-22T06:23:13;10.70;;;4.40;;
7029;SDS011;3556;53.500;10.176;2022-07-22T06:25:39;10.13;;;4.17;;
7029;SDS011;3556;53.500;10.176;2022-07-22T06:28:05;11.97;;;5.40;;
7029;SDS011;3556;53.500;10.176;2022-07-22T06:30:30;8.03;;;4.60;;
7029;SDS011;3556;53.500;10.176;2022-07-22T06:32:56;10.47;;;4.70;;
7029;SDS011;3556;53.500;10.176;2022-07-22T06:35:22;7.77;;;4.33;;
7029;SDS011;3556;53.500;10.176;2022-07-22T06:37:49;20.63;;;4.73;;
7029;SDS011;3556;53.500;10.176;2022-07-22T06:40:15;9.90;;;5.27;;
7029;SDS011;3556;53.500;10.176;2022-07-22T06:42:41;7.87;;;5.10;;
7029;SDS011;3556;53.500;10.176;2022-07-22T06:45:06;14.57;;;5.77;;
7029;SDS011;3556;53.500;10.176;2022-07-22T06:47:32;15.83;;;5.30;;
7029;SDS011;3556;53.500;10.176;2022-07-22T06:50:00;9.23;;;4.53;;
7029;SDS011;3556;53.500;10.176;2022-07-22T06:52:30;11.67;;;4.80;;
7029;SDS011;3556;53.500;10.176;2022-07-22T06:54:55;11.77;;;4.87;;
7029;SDS011;3556;53.500;10.176;2022-07-22T06:57:21;11.37;;;4.67;;
7029;SDS011;3556;53.500;10.176;2022-07-22T06:59:47;7.47;;;4.80;;
7029;SDS011;3556;53.500;10.176;2022-07-22T07:02:12;15.60;;;4.83;;
7029;SDS011;3556;53.500;10.176;2022-07-22T07:04:38;12.83;;;5.03;;
7029;SDS011;3556;53.500;10.176;2022-07-22T07:07:04;19.43;;;5.00;;
7029;SDS011;3556;53.500;10.176;2022-07-22T07:09:29;18.40;;;4.53;;
7029;SDS011;3556;53.500;10.176;2022-07-22T07:11:55;10.77;;;5.23;;
7029;SDS011;3556;53.500;10.176;2022-07-22T07:14:21;20.33;;;5.47;;
7029;SDS011;3556;53.500;10.176;2022-07-22T07:16:46;17.00;;;5.10;;
7029;SDS011;3556;53.500;10.176;2022-07-22T07:19:12;13.90;;;4.80;;
7029;SDS011;3556;53.500;10.176;2022-07-22T07:21:37;23.57;;;4.90;;
7029;SDS011;3556;53.500;10.176;2022-07-22T07:24:03;9.03;;;4.10;;
7029;SDS011;3556;53.500;10.176;2022-07-22T07:26:29;5.63;;;3.90;;
7029;SDS011;3556;53.500;10.176;2022-07-22T07:28:55;9.83;;;4.77;;
7029;SDS011;3556;53.500;10.176;2022-07-22T07:31:20;7.43;;;3.90;;
7029;SDS011;3556;53.500;10.176;2022-07-22T07:33:46;12.23;;;4.70;;
7029;SDS011;3556;53.500;10.176;2022-07-22T07:36:12;9.63;;;4.00;;
7029;SDS011;3556;53.500;10.176;2022-07-22T07:38:39;6.10;;;4.07;;
7029;SDS011;3556;53.500;10.176;2022-07-22T07:41:05;11.60;;;3.80;;
7029;SDS011;3556;53.500;10.176;2022-07-22T07:43:30;10.60;;;3.97;;
7029;SDS011;3556;53.500;10.176;2022-07-22T07:45:56;15.87;;;4.17;;
7029;SDS011;3556;53.500;10.176;2022-07-22T07:48:22;7.13;;;4.03;;
7029;SDS011;3556;53.500;10.176;2022-07-22T07:50:48;5.30;;;3.30;;
7029;SDS011;3556;53.500;10.176;2022-07-22T07:53:14;11.03;;;3.50;;
7029;SDS011;3556;53.500;10.176;2022-07-22T07:55:41;14.07;;;4.03;;
7029;SDS011;3556;53.500;10.176;2022-07-22T07:58:07;9.70;;;3.20;;
7029;SDS011;3556;53.500;10.176;2022-07-22T08:00:33;13.03;;;3.90;;
7029;SDS011;3556;53.500;10.176;2022-07-22T08:03:00;15.33;;;4.07;;
7029;SDS011;3556;53.500;10.176;2022-07-22T08:05:26;14.43;;;3.90;;
7029;SDS011;3556;53.500;10.176;2022-07-22T08:07:52;8.13;;;3.60;;
7029;SDS011;3556;53.500;10.176;2022-07-22T08:10:19;10.33;;;3.87;;
7029;SDS011;3556;53.500;10.176;2022-07-22T08:12:45;8.00;;;3.27;;
7029;SDS011;3556;53.500;10.176;2022-07-22T08:15:10;9.23;;;3.53;;
7029;SDS011;3556;53.500;10.176;2022-07-22T08:17:36;16.20;;;3.60;;
7029;SDS011;3556;53.500;10.176;2022-07-22T08:20:03;16.83;;;3.50;;
7029;SDS011;3556;53.500;10.176;2022-07-22T08:22:29;11.07;;;3.70;;
7029;SDS011;3556;53.500;10.176;2022-07-22T08:24:55;6.27;;;3.03;;
7029;SDS011;3556;53.500;10.176;2022-07-22T08:27:21;13.97;;;3.87;;
7029;SDS011;3556;53.500;10.176;2022-07-22T08:29:46;9.27;;;3.47;;
7029;SDS011;3556;53.500;10.176;2022-07-22T08:32:12;13.80;;;3.40;;
7029;SDS011;3556;53.500;10.176;2022-07-22T08:34:38;10.00;;;4.13;;
7029;SDS011;3556;53.500;10.176;2022-07-22T08:37:03;12.60;;;3.60;;
7029;SDS011;3556;53.500;10.176;2022-07-22T08:39:29;7.90;;;3.10;;
7029;SDS011;3556;53.500;10.176;2022-07-22T08:41:55;12.00;;;3.50;;
7029;SDS011;3556;53.500;10.176;2022-07-22T08:44:22;4.53;;;2.60;;
7029;SDS011;3556;53.500;10.176;2022-07-22T08:46:48;7.90;;;3.30;;
7029;SDS011;3556;53.500;10.176;2022-07-22T08:49:14;6.97;;;3.23;;
7029;SDS011;3556;53.500;10.176;2022-07-22T08:51:41;5.13;;;3.00;;
7029;SDS011;3556;53.500;10.176;2022-07-22T08:54:06;9.47;;;3.33;;
7029;SDS011;3556;53.500;10.176;2022-07-22T08:56:32;10.27;;;3.53;;
7029;SDS011;3556;53.500;10.176;2022-07-22T08:58:58;9.53;;;3.30;;
7029;SDS011;3556;53.500;10.176;2022-07-22T09:01:23;7.90;;;3.33;;
7029;SDS011;3556;53.500;10.176;2022-07-22T09:03:53;7.07;;;2.90;;
7029;SDS011;3556;53.500;10.176;2022-07-22T09:06:22;16.57;;;3.57;;
7029;SDS011;3556;53.500;10.176;2022-07-22T09:08:56;14.40;;;3.17;;
7029;SDS011;3556;53.500;10.176;2022-07-22T09:11:27;6.97;;;2.73;;
7029;SDS011;3556;53.500;10.176;2022-07-22T09:13:55;6.60;;;2.57;;
7029;SDS011;3556;53.500;10.176;2022-07-22T09:16:44;5.43;;;2.87;;
7029;SDS011;3556;53.500;10.176;2022-07-22T09:19:12;3.57;;;2.47;;
7029;SDS011;3556;53.500;10.176;2022-07-22T09:21:40;8.10;;;2.70;;
7029;SDS011;3556;53.500;10.176;2022-07-22T09:24:08;7.60;;;3.00;;
7029;SDS011;3556;53.500;10.176;2022-07-22T09:26:49;7.53;;;2.70;;
7029;SDS011;3556;53.500;10.176;2022-07-22T09:29:19;3.90;;;2.40;;
7029;SDS011;3556;53.500;10.176;2022-07-22T09:31:49;7.03;;;2.67;;
7029;SDS011;3556;53.500;10.176;2022-07-22T09:34:27;7.00;;;2.63;;
7029;SDS011;3556;53.500;10.176;2022-07-22T09:36:55;8.30;;;3.70;;
7029;SDS011;3556;53.500;10.176;2022-07-22T09:39:26;10.17;;;2.57;;
7029;SDS011;3556;53.500;10.176;2022-07-22T09:41:59;7.93;;;2.80;;
7029;SDS011;3556;53.500;10.176;2022-07-22T09:44:32;7.80;;;2.60;;
7029;SDS011;3556;53.500;10.176;2022-07-22T09:46:58;10.10;;;3.07;;
7029;SDS011;3556;53.500;10.176;2022-07-22T09:49:36;2.87;;;2.40;;
7029;SDS011;3556;53.500;10.176;2022-07-22T09:52:05;3.70;;;2.77;;
7029;SDS011;3556;53.500;10.176;2022-07-22T09:54:31;8.40;;;3.20;;
7029;SDS011;3556;53.500;10.176;2022-07-22T09:56:57;6.47;;;2.70;;
7029;SDS011;3556;53.500;10.176;2022-07-22T09:59:23;5.67;;;3.47;;
7029;SDS011;3556;53.500;10.176;2022-07-22T10:01:50;5.37;;;2.50;;
7029;SDS011;3556;53.500;10.176;2022-07-22T10:04:23;2.73;;;2.43;;
7029;SDS011;3556;53.500;10.176;2022-07-22T10:06:50;10.03;;;2.47;;
7029;SDS011;3556;53.500;10.176;2022-07-22T10:09:19;5.93;;;2.33;;
7029;SDS011;3556;53.500;10.176;2022-07-22T10:11:47;5.53;;;2.80;;
7029;SDS011;3556;53.500;10.176;2022-07-22T10:14:14;2.73;;;2.00;;
7029;SDS011;3556;53.500;10.176;2022-07-22T10:16:41;3.40;;;2.40;;
7029;SDS011;3556;53.500;10.176;2022-07-22T10:19:08;8.43;;;2.30;;
7029;SDS011;3556;53.500;10.176;2022-07-22T10:21:34;4.70;;;2.40;;
7029;SDS011;3556;53.500;10.176;2022-07-22T10:24:13;4.40;;;2.17;;
7029;SDS011;3556;53.500;10.176;2022-07-22T10:26:46;6.27;;;2.07;;
7029;SDS011;3556;53.500;10.176;2022-07-22T10:34:40;5.97;;;2.50;;
7029;SDS011;3556;53.500;10.176;2022-07-22T10:40:12;2.73;;;2.50;;
7029;SDS011;3556;53.500;10.176;2022-07-22T10:45:26;6.93;;;2.20;;
7029;SDS011;3556;53.500;10.176;2022-07-22T10:47:58;6.80;;;2.37;;
7029;SDS011;3556;53.500;10.176;2022-07-22T10:56:48;8.30;;;2.30;;
7029;SDS011;3556;53.500;10.176;2022-07-22T10:59:12;7.20;;;3.17;;
7029;SDS011;3556;53.500;10.176;2022-07-22T11:01:40;4.00;;;2.70;;
7029;SDS011;3556;53.500;10.176;2022-07-22T11:04:15;3.87;;;2.30;;
7029;SDS011;3556;53.500;10.176;2022-07-22T11:06:47;6.63;;;2.67;;
7029;SDS011;3556;53.500;10.176;2022-07-22T11:09:14;2.90;;;2.27;;
7029;SDS011;3556;53.500;10.176;2022-07-22T11:14:12;9.67;;;2.57;;
7029;SDS011;3556;53.500;10.176;2022-07-22T11:16:56;5.93;;;2.80;;
7029;SDS011;3556;53.500;10.176;2022-07-22T11:19:27;3.87;;;2.37;;
7029;SDS011;3556;53.500;10.176;2022-07-22T11:21:55;4.10;;;2.40;;
7029;SDS011;3556;53.500;10.176;2022-07-22T11:24:22;9.50;;;2.53;;
7029;SDS011;3556;53.500;10.176;2022-07-22T11:26:50;4.47;;;2.40;;
7029;SDS011;3556;53.500;10.176;2022-07-22T11:29:18;9.20;;;2.37;;
7029;SDS011;3556;53.500;10.176;2022-07-22T11:31:49;6.77;;;2.40;;
7029;SDS011;3556;53.500;10.176;2022-07-22T11:34:15;4.10;;;2.63;;
7029;SDS011;3556;53.500;10.176;2022-07-22T11:36:42;3.07;;;2.47;;
7029;SDS011;3556;53.500;10.176;2022-07-22T11:39:09;2.73;;;2.20;;
7029;SDS011;3556;53.500;10.176;2022-07-22T11:41:35;3.27;;;2.10;;
7029;SDS011;3556;53.500;10.176;2022-07-22T11:44:02;4.00;;;2.20;;
7029;SDS011;3556;53.500;10.176;2022-07-22T11:46:29;3.33;;;2.10;;
7029;SDS011;3556;53.500;10.176;2022-07-22T11:49:01;2.93;;;1.83;;
7029;SDS011;3556;53.500;10.176;2022-07-22T11:51:28;5.80;;;2.63;;
7029;SDS011;3556;53.500;10.176;2022-07-22T11:53:57;3.20;;;2.30;;
7029;SDS011;3556;53.500;10.176;2022-07-22T11:56:24;4.30;;;2.40;;
7029;SDS011;3556;53.500;10.176;2022-07-22T11:58:50;5.17;;;3.03;;
7029;SDS011;3556;53.500;10.176;2022-07-22T12:01:19;5.13;;;2.33;;
7029;SDS011;3556;53.500;10.176;2022-07-22T12:03:48;4.53;;;1.90;;
7029;SDS011;3556;53.500;10.176;2022-07-22T12:06:19;3.83;;;2.50;;
7029;SDS011;3556;53.500;10.176;2022-07-22T12:08:46;2.70;;;2.00;;
7029;SDS011;3556;53.500;10.176;2022-07-22T12:11:16;2.33;;;2.10;;
7029;SDS011;3556;53.500;10.176;2022-07-22T12:13:43;6.10;;;1.90;;
7029;SDS011;3556;53.500;10.176;2022-07-22T12:16:17;3.67;;;2.03;;
7029;SDS011;3556;53.500;10.176;2022-07-22T12:18:43;3.70;;;1.83;;
7029;SDS011;3556;53.500;10.176;2022-07-22T12:21:15;4.10;;;2.50;;
7029;SDS011;3556;53.500;10.176;2022-07-22T12:23:41;4.00;;;2.40;;
7029;SDS011;3556;53.500;10.176;2022-07-22T12:26:18;5.07;;;2.50;;
7029;SDS011;3556;53.500;10.176;2022-07-22T12:28:43;5.77;;;2.30;;
7029;SDS011;3556;53.500;10.176;2022-07-22T12:31:09;5.47;;;2.13;;
7029;SDS011;3556;53.500;10.176;2022-07-22T12:33:35;6.37;;;2.03;;
7029;SDS011;3556;53.500;10.176;2022-07-22T12:36:05;4.00;;;2.20;;
7029;SDS011;3556;53.500;10.176;2022-07-22T12:38:32;2.33;;;1.97;;
7029;SDS011;3556;53.500;10.176;2022-07-22T12:43:54;6.07;;;2.00;;
7029;SDS011;3556;53.500;10.176;2022-07-22T12:46:21;3.93;;;2.07;;
7029;SDS011;3556;53.500;10.176;2022-07-22T12:48:50;3.23;;;2.13;;
7029;SDS011;3556;53.500;10.176;2022-07-22T12:51:17;3.53;;;1.83;;
7029;SDS011;3556;53.500;10.176;2022-07-22T12:53:42;2.00;;;1.83;;
7029;SDS011;3556;53.500;10.176;2022-07-22T12:56:08;6.93;;;2.10;;
7029;SDS011;3556;53.500;10.176;2022-07-22T12:58:36;4.87;;;2.30;;
7029;SDS011;3556;53.500;10.176;2022-07-22T13:01:05;7.23;;;2.10;;
7029;SDS011;3556;53.500;10.176;2022-07-22T13:03:31;3.73;;;1.80;;
7029;SDS011;3556;53.500;10.176;2022-07-22T13:05:59;4.90;;;2.20;;
7029;SDS011;3556;53.500;10.176;2022-07-22T13:08:26;3.10;;;2.33;;
7029;SDS011;3556;53.500;10.176;2022-07-22T13:10:53;2.57;;;1.97;;
7029;SDS011;3556;53.500;10.176;2022-07-22T13:13:20;5.33;;;1.90;;
7029;SDS011;3556;53.500;10.176;2022-07-22T13:15:47;4.33;;;2.00;;
7029;SDS011;3556;53.500;10.176;2022-07-22T13:18:13;2.00;;;1.90;;
7029;SDS011;3556;53.500;10.176;2022-07-22T13:20:39;2.90;;;2.07;;
7029;SDS011;3556;53.500;10.176;2022-07-22T13:23:05;1.80;;;1.70;;
7029;SDS011;3556;53.500;10.176;2022-07-22T13:25:30;5.17;;;2.20;;
7029;SDS011;3556;53.500;10.176;2022-07-22T13:27:57;3.17;;;2.03;;
7029;SDS011;3556;53.500;10.176;2022-07-22T13:30:24;2.30;;;1.97;;
7029;SDS011;3556;53.500;10.176;2022-07-22T13:32:50;3.20;;;1.70;;
7029;SDS011;3556;53.500;10.176;2022-07-22T13:35:16;7.83;;;2.53;;
7029;SDS011;3556;53.500;10.176;2022-07-22T13:37:42;2.40;;;1.93;;
7029;SDS011;3556;53.500;10.176;2022-07-22T13:40:09;2.97;;;2.37;;
7029;SDS011;3556;53.500;10.176;2022-07-22T13:42:35;5.43;;;2.43;;
7029;SDS011;3556;53.500;10.176;2022-07-22T13:45:00;2.30;;;2.20;;
7029;SDS011;3556;53.500;10.176;2022-07-22T13:47:28;5.13;;;2.10;;
7029;SDS011;3556;53.500;10.176;2022-07-22T13:49:53;3.30;;;2.20;;
7029;SDS011;3556;53.500;10.176;2022-07-22T13:52:19;4.03;;;2.13;;
7029;SDS011;3556;53.500;10.176;2022-07-22T13:54:45;2.10;;;1.90;;
7029;SDS011;3556;53.500;10.176;2022-07-22T13:57:10;2.73;;;1.67;;
7029;SDS011;3556;53.500;10.176;2022-07-22T13:59:36;3.17;;;1.93;;
7029;SDS011;3556;53.500;10.176;2022-07-22T14:02:03;3.00;;;2.67;;
7029;SDS011;3556;53.500;10.176;2022-07-22T14:04:29;3.70;;;2.33;;
7029;SDS011;3556;53.500;10.176;2022-07-22T14:06:55;4.30;;;2.33;;
7029;SDS011;3556;53.500;10.176;2022-07-22T14:09:21;2.70;;;2.47;;
7029;SDS011;3556;53.500;10.176;2022-07-22T14:11:47;7.67;;;2.13;;
7029;SDS011;3556;53.500;10.176;2022-07-22T14:14:13;4.83;;;2.27;;
7029;SDS011;3556;53.500;10.176;2022-07-22T14:16:39;1.90;;;1.80;;
7029;SDS011;3556;53.500;10.176;2022-07-22T14:19:05;2.00;;;1.63;;
7029;SDS011;3556;53.500;10.176;2022-07-22T14:21:39;2.70;;;2.17;;
7029;SDS011;3556;53.500;10.176;2022-07-22T14:24:07;1.33;;;1.23;;
7029;SDS011;3556;53.500;10.176;2022-07-22T14:26:34;6.30;;;1.63;;
7029;SDS011;3556;53.500;10.176;2022-07-22T14:29:00;3.17;;;1.83;;
7029;SDS011;3556;53.500;10.176;2022-07-22T14:31:27;4.70;;;2.77;;
7029;SDS011;3556;53.500;10.176;2022-07-22T14:33:53;2.63;;;2.00;;
7029;SDS011;3556;53.500;10.176;2022-07-22T14:36:19;9.50;;;2.90;;
7029;SDS011;3556;53.500;10.176;2022-07-22T14:38:45;2.87;;;1.70;;
7029;SDS011;3556;53.500;10.176;2022-07-22T14:41:10;4.53;;;1.93;;
7029;SDS011;3556;53.500;10.176;2022-07-22T14:43:36;4.83;;;1.80;;
7029;SDS011;3556;53.500;10.176;2022-07-22T14:46:02;9.50;;;1.90;;
7029;SDS011;3556;53.500;10.176;2022-07-22T14:48:36;2.00;;;1.90;;
7029;SDS011;3556;53.500;10.176;2022-07-22T14:51:02;2.00;;;1.90;;
7029;SDS011;3556;53.500;10.176;2022-07-22T14:53:29;10.33;;;2.87;;
7029;SDS011;3556;53.500;10.176;2022-07-22T14:55:55;7.33;;;3.87;;
7029;SDS011;3556;53.500;10.176;2022-07-22T14:58:21;8.53;;;2.80;;
7029;SDS011;3556;53.500;10.176;2022-07-22T15:00:46;3.60;;;1.93;;
7029;SDS011;3556;53.500;10.176;2022-07-22T15:03:12;8.73;;;2.40;;
7029;SDS011;3556;53.500;10.176;2022-07-22T15:05:38;3.00;;;1.80;;
7029;SDS011;3556;53.500;10.176;2022-07-22T15:08:06;5.87;;;2.23;;
7029;SDS011;3556;53.500;10.176;2022-07-22T15:10:32;5.13;;;2.00;;
7029;SDS011;3556;53.500;10.176;2022-07-22T15:12:58;5.73;;;2.10;;
7029;SDS011;3556;53.500;10.176;2022-07-22T15:15:23;2.40;;;2.20;;